sensor_id;sensor_type;location;lat;lon;timestamp;pressure;altitude;pressure_sealevel;temperature;humidity
76205;BME280;64986;55.672;37.628;2023-01-28T00:02:06;100192.22;;;-0.61;81.47
76205;BME280;64986;55.672;37.628;2023-01-28T00:04:31;100200.91;;;-0.62;81.11
76205;BME280;64986;55.672;37.628;2023-01-28T00:06:57;100188.94;;;-0.63;80.49
76205;BME280;64986;55.672;37.628;2023-01-28T00:09:22;100188.94;;;-0.63;80.72
76205;BME280;64986;55.672;37.628;2023-01-28T00:11:48;100190.22;;;-0.68;81.16
76205;BME280;64986;55.672;37.628;2023-01-28T00:14:13;100185.41;;;-0.73;80.60
76205;BME280;64986;55.672;37.628;2023-01-28T00:16:39;100187.75;;;-0.70;80.50
76205;BME280;64986;55.672;37.628;2023-01-28T00:19:04;100192.09;;;-0.70;80.51
76205;BME280;64986;55.672;37.628;2023-01-28T00:21:30;100184.69;;;-0.75;80.34
76205;BME280;64986;55.672;37.628;2023-01-28T00:23:55;100189.16;;;-0.77;79.89
76205;BME280;64986;55.672;37.628;2023-01-28T00:26:22;100163.63;;;-0.93;79.98
76205;BME280;64986;55.672;37.628;2023-01-28T00:28:49;100192.78;;;-0.79;80.35
76205;BME280;64986;55.672;37.628;2023-01-28T00:31:25;100186.81;;;-0.80;80.82
76205;BME280;64986;55.672;37.628;2023-01-28T00:33:55;100197.84;;;-0.78;80.68
76205;BME280;64986;55.672;37.628;2023-01-28T00:36:23;100195.25;;;-0.78;80.41
76205;BME280;64986;55.672;37.628;2023-01-28T00:38:51;100192.09;;;-0.81;80.13
76205;BME280;64986;55.672;37.628;2023-01-28T00:41:19;100187.94;;;-0.84;80.34
76205;BME280;64986;55.672;37.628;2023-01-28T00:43:48;100199.97;;;-0.83;80.33
76205;BME280;64986;55.672;37.628;2023-01-28T00:46:14;100202.44;;;-0.81;80.35
76205;BME280;64986;55.672;37.628;2023-01-28T00:48:42;100199.59;;;-0.78;80.36
76205;BME280;64986;55.672;37.628;2023-01-28T00:51:09;100204.56;;;-0.75;80.33
76205;BME280;64986;55.672;37.628;2023-01-28T00:53:35;100201.97;;;-0.75;80.05
76205;BME280;64986;55.672;37.628;2023-01-28T00:56:03;100193.38;;;-0.87;80.23
76205;BME280;64986;55.672;37.628;2023-01-28T00:58:30;100206.41;;;-0.77;80.41
76205;BME280;64986;55.672;37.628;2023-01-28T01:00:55;100207.47;;;-0.80;79.92
76205;BME280;64986;55.672;37.628;2023-01-28T01:03:21;100204.84;;;-0.91;80.07
76205;BME280;64986;55.672;37.628;2023-01-28T01:05:46;100194.16;;;-0.98;79.74
76205;BME280;64986;55.672;37.628;2023-01-28T01:08:12;100206.41;;;-0.89;80.41
76205;BME280;64986;55.672;37.628;2023-01-28T01:10:38;100203.47;;;-0.84;80.01
76205;BME280;64986;55.672;37.628;2023-01-28T01:13:05;100198.19;;;-0.82;80.42
76205;BME280;64986;55.672;37.628;2023-01-28T01:15:31;100201.25;;;-0.77;80.26
76205;BME280;64986;55.672;37.628;2023-01-28T01:17:57;100204.56;;;-0.75;80.26
76205;BME280;64986;55.672;37.628;2023-01-28T01:20:25;100205.84;;;-0.81;79.98
76205;BME280;64986;55.672;37.628;2023-01-28T01:22:51;100202.50;;;-0.94;79.80
76205;BME280;64986;55.672;37.628;2023-01-28T01:25:18;100207.34;;;-0.90;80.08
76205;BME280;64986;55.672;37.628;2023-01-28T01:27:44;100210.97;;;-0.92;79.89
76205;BME280;64986;55.672;37.628;2023-01-28T01:30:14;100210.13;;;-0.93;80.12
76205;BME280;64986;55.672;37.628;2023-01-28T01:32:40;100204.84;;;-0.91;79.82
76205;BME280;64986;55.672;37.628;2023-01-28T01:35:06;100206.41;;;-0.89;79.94
76205;BME280;64986;55.672;37.628;2023-01-28T01:37:34;100206.72;;;-0.93;79.67
76205;BME280;64986;55.672;37.628;2023-01-28T01:40:00;100203.56;;;-0.97;79.71
76205;BME280;64986;55.672;37.628;2023-01-28T01:42:30;100195.56;;;-0.94;79.80
76205;BME280;64986;55.672;37.628;2023-01-28T01:50:31;100191.34;;;-0.95;79.10
76205;BME280;64986;55.672;37.628;2023-01-28T01:53:09;100197.22;;;-0.93;79.34
76205;BME280;64986;55.672;37.628;2023-01-28T01:55:38;100193.69;;;-0.92;79.52
76205;BME280;64986;55.672;37.628;2023-01-28T01:58:07;100197.22;;;-0.93;79.07
76205;BME280;64986;55.672;37.628;2023-01-28T02:00:36;100198.16;;;-0.94;79.59
76205;BME280;64986;55.672;37.628;2023-01-28T02:03:03;100193.69;;;-1.03;79.05
76205;BME280;64986;55.672;37.628;2023-01-28T02:05:28;100202.13;;;-1.01;78.99
76205;BME280;64986;55.672;37.628;2023-01-28T02:07:56;100199.66;;;-1.02;79.16
76205;BME280;64986;55.672;37.628;2023-01-28T02:10:42;100200.47;;;-1.13;79.22
76205;BME280;64986;55.672;37.628;2023-01-28T02:13:08;100199.84;;;-1.17;78.99
76205;BME280;64986;55.672;37.628;2023-01-28T02:15:33;100206.78;;;-1.17;78.98
76205;BME280;64986;55.672;37.628;2023-01-28T02:17:59;100205.72;;;-1.15;78.96
76205;BME280;64986;55.672;37.628;2023-01-28T02:20:43;100211.38;;;-1.09;79.23
76205;BME280;64986;55.672;37.628;2023-01-28T02:23:33;100211.06;;;-1.05;79.10
76205;BME280;64986;55.672;37.628;2023-01-28T02:29:04;100211.75;;;-1.03;79.04
76205;BME280;64986;55.672;37.628;2023-01-28T02:31:43;100219.72;;;-1.06;78.63
76205;BME280;64986;55.672;37.628;2023-01-28T02:36:48;100227.47;;;-1.06;78.88
76205;BME280;64986;55.672;37.628;2023-01-28T02:39:23;100216.94;;;-1.03;78.93
76205;BME280;64986;55.672;37.628;2023-01-28T02:42:08;100216.94;;;-1.03;78.64
76205;BME280;64986;55.672;37.628;2023-01-28T02:44:35;100219.84;;;-1.07;78.87
76205;BME280;64986;55.672;37.628;2023-01-28T02:47:00;100216.44;;;-1.08;78.40
76205;BME280;64986;55.672;37.628;2023-01-28T02:49:49;100219.00;;;-1.08;78.55
76205;BME280;64986;55.672;37.628;2023-01-28T02:55:52;100224.41;;;-1.11;78.45
76205;BME280;64986;55.672;37.628;2023-01-28T03:01:32;100232.72;;;-1.19;78.53
76205;BME280;64986;55.672;37.628;2023-01-28T03:03:58;100236.34;;;-1.21;78.47
76205;BME280;64986;55.672;37.628;2023-01-28T03:06:29;100230.25;;;-1.20;78.42
76205;BME280;64986;55.672;37.628;2023-01-28T03:09:01;100237.06;;;-1.19;78.57
76205;BME280;64986;55.672;37.628;2023-01-28T03:11:56;100239.84;;;-1.22;78.23
76205;BME280;64986;55.672;37.628;2023-01-28T03:14:42;100245.97;;;-1.23;78.65
76205;BME280;64986;55.672;37.628;2023-01-28T03:17:32;100245.38;;;-1.27;78.58
76205;BME280;64986;55.672;37.628;2023-01-28T03:20:20;100244.16;;;-1.34;78.71
76205;BME280;64986;55.672;37.628;2023-01-28T03:23:09;100238.38;;;-1.37;78.34
76205;BME280;64986;55.672;37.628;2023-01-28T03:25:58;100244.28;;;-1.35;78.11
76205;BME280;64986;55.672;37.628;2023-01-28T03:28:45;100250.03;;;-1.32;78.47
76205;BME280;64986;55.672;37.628;2023-01-28T03:31:32;100255.91;;;-1.30;78.61
76205;BME280;64986;55.672;37.628;2023-01-28T03:34:19;100249.44;;;-1.35;78.33
76205;BME280;64986;55.672;37.628;2023-01-28T03:37:05;100253.47;;;-1.44;78.43
76205;BME280;64986;55.672;37.628;2023-01-28T03:39:31;100250.41;;;-1.49;78.73
76205;BME280;64986;55.672;37.628;2023-01-28T03:42:03;100252.06;;;-1.48;78.78
76205;BME280;64986;55.672;37.628;2023-01-28T03:44:30;100251.72;;;-1.44;78.37
76205;BME280;64986;55.672;37.628;2023-01-28T03:47:21;100250.59;;;-1.40;78.23
76205;BME280;64986;55.672;37.628;2023-01-28T03:49:49;100253.88;;;-1.37;78.95
76205;BME280;64986;55.672;37.628;2023-01-28T03:52:20;100250.31;;;-1.48;78.03
76205;BME280;64986;55.672;37.628;2023-01-28T03:54:46;100252.34;;;-1.40;78.71
76205;BME280;64986;55.672;37.628;2023-01-28T03:57:16;100242.25;;;-1.43;78.28
76205;BME280;64986;55.672;37.628;2023-01-28T03:59:42;100248.81;;;-1.39;78.65
76205;BME280;64986;55.672;37.628;2023-01-28T04:02:09;100244.38;;;-1.37;78.37
76205;BME280;64986;55.672;37.628;2023-01-28T04:04:37;100246.03;;;-1.36;78.28
76205;BME280;64986;55.672;37.628;2023-01-28T04:07:05;100245.81;;;-1.33;78.24
76205;BME280;64986;55.672;37.628;2023-01-28T04:09:33;100250.84;;;-1.31;78.28
76205;BME280;64986;55.672;37.628;2023-01-28T04:12:00;100248.50;;;-1.34;78.10
76205;BME280;64986;55.672;37.628;2023-01-28T04:14:25;100245.69;;;-1.31;77.96
76205;BME280;64986;55.672;37.628;2023-01-28T04:16:51;100255.19;;;-1.32;77.74
76205;BME280;64986;55.672;37.628;2023-01-28T04:19:19;100247.50;;;-1.45;77.59
76205;BME280;64986;55.672;37.628;2023-01-28T04:21:45;100246.28;;;-1.52;78.14
76205;BME280;64986;55.672;37.628;2023-01-28T04:24:12;100252.38;;;-1.53;77.61
76205;BME280;64986;55.672;37.628;2023-01-28T04:26:38;100246.38;;;-1.53;77.90
76205;BME280;64986;55.672;37.628;2023-01-28T04:29:04;100243.69;;;-1.52;77.76
76205;BME280;64986;55.672;37.628;2023-01-28T04:31:30;100247.72;;;-1.48;77.73
76205;BME280;64986;55.672;37.628;2023-01-28T04:33:56;100243.25;;;-1.46;77.86
76205;BME280;64986;55.672;37.628;2023-01-28T04:36:22;100240.47;;;-1.43;77.87
76205;BME280;64986;55.672;37.628;2023-01-28T04:38:47;100245.53;;;-1.41;78.12
76205;BME280;64986;55.672;37.628;2023-01-28T04:41:13;100249.63;;;-1.38;77.69
76205;BME280;64986;55.672;37.628;2023-01-28T04:43:38;100241.38;;;-1.44;77.80
76205;BME280;64986;55.672;37.628;2023-01-28T04:46:04;100250.47;;;-1.38;77.69
76205;BME280;64986;55.672;37.628;2023-01-28T04:48:30;100249.13;;;-1.44;77.58
76205;BME280;64986;55.672;37.628;2023-01-28T04:50:56;100248.31;;;-1.44;77.30
76205;BME280;64986;55.672;37.628;2023-01-28T04:53:22;100250.06;;;-1.45;77.44
76205;BME280;64986;55.672;37.628;2023-01-28T04:55:47;100251.53;;;-1.41;77.84
76205;BME280;64986;55.672;37.628;2023-01-28T04:58:13;100256.88;;;-1.44;77.00
76205;BME280;64986;55.672;37.628;2023-01-28T05:00:39;100260.19;;;-1.42;77.14
76205;BME280;64986;55.672;37.628;2023-01-28T05:03:04;100262.56;;;-1.38;77.13
76205;BME280;64986;55.672;37.628;2023-01-28T05:05:30;100265.03;;;-1.37;77.16
76205;BME280;64986;55.672;37.628;2023-01-28T05:07:56;100264.31;;;-1.39;77.37
76205;BME280;64986;55.672;37.628;2023-01-28T05:10:23;100269.59;;;-1.41;77.26
76205;BME280;64986;55.672;37.628;2023-01-28T05:12:49;100262.78;;;-1.42;76.82
76205;BME280;64986;55.672;37.628;2023-01-28T05:15:15;100269.72;;;-1.42;76.78
76205;BME280;64986;55.672;37.628;2023-01-28T05:17:42;100267.22;;;-1.44;76.82
76205;BME280;64986;55.672;37.628;2023-01-28T05:20:09;100273.31;;;-1.45;76.42
76205;BME280;64986;55.672;37.628;2023-01-28T05:22:35;100260.53;;;-1.59;76.43
76205;BME280;64986;55.672;37.628;2023-01-28T05:25:01;100273.03;;;-1.53;76.59
76205;BME280;64986;55.672;37.628;2023-01-28T05:27:29;100286.97;;;-1.43;76.74
76205;BME280;64986;55.672;37.628;2023-01-28T05:29:55;100279.63;;;-1.49;76.96
76205;BME280;64986;55.672;37.628;2023-01-28T05:32:20;100281.50;;;-1.51;76.59
76205;BME280;64986;55.672;37.628;2023-01-28T05:34:46;100283.88;;;-1.48;76.71
76205;BME280;64986;55.672;37.628;2023-01-28T05:37:11;100279.53;;;-1.47;76.73
76205;BME280;64986;55.672;37.628;2023-01-28T05:39:37;100272.91;;;-1.51;76.51
76205;BME280;64986;55.672;37.628;2023-01-28T05:42:03;100271.91;;;-1.49;76.36
76205;BME280;64986;55.672;37.628;2023-01-28T05:44:28;100271.38;;;-1.54;76.18
76205;BME280;64986;55.672;37.628;2023-01-28T05:46:54;100272.53;;;-1.58;76.27
76205;BME280;64986;55.672;37.628;2023-01-28T05:49:19;100281.00;;;-1.56;76.10
76205;BME280;64986;55.672;37.628;2023-01-28T05:51:45;100274.66;;;-1.52;76.13
76205;BME280;64986;55.672;37.628;2023-01-28T05:54:12;100281.28;;;-1.48;76.50
76205;BME280;64986;55.672;37.628;2023-01-28T05:56:38;100278.69;;;-1.48;76.06
76205;BME280;64986;55.672;37.628;2023-01-28T05:59:04;100285.50;;;-1.47;76.55
76205;BME280;64986;55.672;37.628;2023-01-28T06:01:30;100279.34;;;-1.57;75.93
76205;BME280;64986;55.672;37.628;2023-01-28T06:03:55;100281.81;;;-1.55;76.04
76205;BME280;64986;55.672;37.628;2023-01-28T06:06:21;100284.63;;;-1.58;75.60
76205;BME280;64986;55.672;37.628;2023-01-28T06:08:47;100296.50;;;-1.56;75.51
76205;BME280;64986;55.672;37.628;2023-01-28T06:11:12;100290.63;;;-1.58;75.57
76205;BME280;64986;55.672;37.628;2023-01-28T06:13:38;100297.44;;;-1.57;76.05
76205;BME280;64986;55.672;37.628;2023-01-28T06:16:06;100294.50;;;-1.52;75.33
76205;BME280;64986;55.672;37.628;2023-01-28T06:18:31;100290.16;;;-1.52;75.38
76205;BME280;64986;55.672;37.628;2023-01-28T06:20:57;100299.06;;;-1.56;75.22
76205;BME280;64986;55.672;37.628;2023-01-28T06:23:22;100295.03;;;-1.60;75.36
76205;BME280;64986;55.672;37.628;2023-01-28T06:25:53;100306.31;;;-1.61;74.91
76205;BME280;64986;55.672;37.628;2023-01-28T06:28:19;100308.06;;;-1.61;75.47
76205;BME280;64986;55.672;37.628;2023-01-28T06:30:47;100290.34;;;-1.66;75.04
76205;BME280;64986;55.672;37.628;2023-01-28T06:33:13;100305.16;;;-1.57;75.29
76205;BME280;64986;55.672;37.628;2023-01-28T06:35:39;100305.66;;;-1.52;75.50
76205;BME280;64986;55.672;37.628;2023-01-28T06:38:04;100308.97;;;-1.50;75.87
76205;BME280;64986;55.672;37.628;2023-01-28T06:40:30;100312.38;;;-1.49;75.64
76205;BME280;64986;55.672;37.628;2023-01-28T06:42:55;100304.94;;;-1.54;75.33
76205;BME280;64986;55.672;37.628;2023-01-28T06:45:21;100306.69;;;-1.54;75.26
76205;BME280;64986;55.672;37.628;2023-01-28T06:47:46;100308.97;;;-1.50;75.48
76205;BME280;64986;55.672;37.628;2023-01-28T06:50:12;100304.53;;;-1.48;75.23
76205;BME280;64986;55.672;37.628;2023-01-28T06:52:38;100298.66;;;-1.50;75.15
76205;BME280;64986;55.672;37.628;2023-01-28T06:55:04;100309.69;;;-1.48;75.04
76205;BME280;64986;55.672;37.628;2023-01-28T06:57:29;100308.16;;;-1.50;75.68
76205;BME280;64986;55.672;37.628;2023-01-28T06:59:55;100311.09;;;-1.44;75.77
76205;BME280;64986;55.672;37.628;2023-01-28T07:02:20;100315.38;;;-1.43;75.60
76205;BME280;64986;55.672;37.628;2023-01-28T07:04:46;100299.66;;;-1.52;75.49
76205;BME280;64986;55.672;37.628;2023-01-28T07:07:11;100318.34;;;-1.36;75.38
76205;BME280;64986;55.672;37.628;2023-01-28T07:09:37;100324.09;;;-1.32;75.41
76205;BME280;64986;55.672;37.628;2023-01-28T07:12:02;100319.44;;;-1.27;75.20
76205;BME280;64986;55.672;37.628;2023-01-28T07:14:30;100321.81;;;-1.24;75.57
76205;BME280;64986;55.672;37.628;2023-01-28T07:16:55;100314.88;;;-1.24;75.14
76205;BME280;64986;55.672;37.628;2023-01-28T07:19:21;100318.91;;;-1.20;74.65
76205;BME280;64986;55.672;37.628;2023-01-28T07:21:46;100321.25;;;-1.17;74.74
76205;BME280;64986;55.672;37.628;2023-01-28T07:24:12;100326.31;;;-1.15;74.92
76205;BME280;64986;55.672;37.628;2023-01-28T07:26:37;100329.00;;;-1.17;74.31
76205;BME280;64986;55.672;37.628;2023-01-28T07:29:03;100325.47;;;-1.16;74.05
76205;BME280;64986;55.672;37.628;2023-01-28T07:31:28;100321.03;;;-1.14;74.24
76205;BME280;64986;55.672;37.628;2023-01-28T07:33:54;100329.41;;;-1.10;74.88
76205;BME280;64986;55.672;37.628;2023-01-28T07:36:19;100334.78;;;-1.13;74.70
76205;BME280;64986;55.672;37.628;2023-01-28T07:38:45;100328.88;;;-1.15;74.67
76205;BME280;64986;55.672;37.628;2023-01-28T07:41:10;100326.66;;;-1.20;75.01
76205;BME280;64986;55.672;37.628;2023-01-28T07:43:36;100326.25;;;-1.26;74.76
76205;BME280;64986;55.672;37.628;2023-01-28T07:46:01;100325.91;;;-1.22;74.27
76205;BME280;64986;55.672;37.628;2023-01-28T07:48:28;100324.66;;;-1.16;74.33
76205;BME280;64986;55.672;37.628;2023-01-28T07:50:57;100321.41;;;-1.07;74.08
76205;BME280;64986;55.672;37.628;2023-01-28T07:53:23;100309.94;;;-1.03;74.38
76205;BME280;64986;55.672;37.628;2023-01-28T07:55:48;100319.66;;;-1.06;74.35
76205;BME280;64986;55.672;37.628;2023-01-28T07:58:14;100315.09;;;-1.03;74.14
76205;BME280;64986;55.672;37.628;2023-01-28T08:00:39;100302.31;;;-1.04;73.90
76205;BME280;64986;55.672;37.628;2023-01-28T08:03:09;100322.69;;;-0.89;74.08
76205;BME280;64986;55.672;37.628;2023-01-28T08:05:55;100312.81;;;-0.84;72.77
76205;BME280;64986;55.672;37.628;2023-01-28T08:08:22;100323.91;;;-0.81;73.95
76205;BME280;64986;55.672;37.628;2023-01-28T08:10:47;100313.13;;;-0.75;73.05
76205;BME280;64986;55.672;37.628;2023-01-28T08:13:14;100317.72;;;-0.68;73.30
76205;BME280;64986;55.672;37.628;2023-01-28T08:15:40;100318.19;;;-0.63;72.63
76205;BME280;64986;55.672;37.628;2023-01-28T08:18:07;100318.31;;;-0.64;72.88
76205;BME280;64986;55.672;37.628;2023-01-28T08:20:33;100310.31;;;-0.61;72.74
76205;BME280;64986;55.672;37.628;2023-01-28T08:23:05;100316.69;;;-0.54;72.03
76205;BME280;64986;55.672;37.628;2023-01-28T08:25:32;100309.19;;;-0.57;72.33
76205;BME280;64986;55.672;37.628;2023-01-28T08:27:58;100312.59;;;-0.57;72.86
76205;BME280;64986;55.672;37.628;2023-01-28T08:30:23;100317.19;;;-0.49;72.79
76205;BME280;64986;55.672;37.628;2023-01-28T08:32:49;100317.56;;;-0.42;72.69
76205;BME280;64986;55.672;37.628;2023-01-28T08:35:14;100311.56;;;-0.43;72.41
76205;BME280;64986;55.672;37.628;2023-01-28T08:37:40;100316.38;;;-0.38;71.71
76205;BME280;64986;55.672;37.628;2023-01-28T08:40:06;100315.34;;;-0.36;72.35
76205;BME280;64986;55.672;37.628;2023-01-28T08:42:31;100312.88;;;-0.37;72.17
76205;BME280;64986;55.672;37.628;2023-01-28T08:44:57;100317.56;;;-0.31;71.78
76205;BME280;64986;55.672;37.628;2023-01-28T08:47:23;100316.75;;;-0.32;70.96
76205;BME280;64986;55.672;37.628;2023-01-28T08:49:49;100318.88;;;-0.25;71.42
76205;BME280;64986;55.672;37.628;2023-01-28T08:52:14;100305.25;;;-0.16;71.33
76205;BME280;64986;55.672;37.628;2023-01-28T08:54:40;100300.19;;;-0.18;71.17
76205;BME280;64986;55.672;37.628;2023-01-28T08:57:05;100297.03;;;-0.21;70.79
76205;BME280;64986;55.672;37.628;2023-01-28T08:59:31;100308.56;;;-0.14;70.45
76205;BME280;64986;55.672;37.628;2023-01-28T09:01:56;100303.84;;;-0.09;70.93
76205;BME280;64986;55.672;37.628;2023-01-28T09:04:22;100299.41;;;-0.07;70.29
76205;BME280;64986;55.672;37.628;2023-01-28T09:06:48;100296.09;;;-0.09;70.23
76205;BME280;64986;55.672;37.628;2023-01-28T09:09:13;100303.88;;;0.02;70.77
76205;BME280;64986;55.672;37.628;2023-01-28T09:11:39;100304.94;;;0.11;70.37
76205;BME280;64986;55.672;37.628;2023-01-28T09:14:04;100306.69;;;0.21;70.38
76205;BME280;64986;55.672;37.628;2023-01-28T09:16:30;100304.81;;;0.23;70.28
76205;BME280;64986;55.672;37.628;2023-01-28T09:18:55;100294.81;;;0.19;70.53
76205;BME280;64986;55.672;37.628;2023-01-28T09:21:21;100292.09;;;0.20;69.64
76205;BME280;64986;55.672;37.628;2023-01-28T09:23:46;100289.75;;;0.17;70.26
76205;BME280;64986;55.672;37.628;2023-01-28T09:26:12;100292.91;;;0.21;70.12
76205;BME280;64986;55.672;37.628;2023-01-28T09:28:38;100294.34;;;0.14;70.27
76205;BME280;64986;55.672;37.628;2023-01-28T09:31:07;100290.47;;;0.19;70.19
76205;BME280;64986;55.672;37.628;2023-01-28T09:33:34;100289.28;;;0.23;70.15
76205;BME280;64986;55.672;37.628;2023-01-28T09:36:01;100290.00;;;0.25;70.87
76205;BME280;64986;55.672;37.628;2023-01-28T09:38:30;100288.78;;;0.30;69.59
76205;BME280;64986;55.672;37.628;2023-01-28T09:40:56;100288.44;;;0.34;69.39
76205;BME280;64986;55.672;37.628;2023-01-28T09:46:32;100293.72;;;0.44;67.92
76205;BME280;64986;55.672;37.628;2023-01-28T09:48:59;100294.66;;;0.43;69.54
76205;BME280;64986;55.672;37.628;2023-01-28T09:51:46;100291.00;;;0.45;66.74
76205;BME280;64986;55.672;37.628;2023-01-28T09:56:53;100283.84;;;0.38;68.73
76205;BME280;64986;55.672;37.628;2023-01-28T09:59:23;100284.56;;;0.40;68.74
76205;BME280;64986;55.672;37.628;2023-01-28T10:01:59;100284.56;;;0.40;67.25
76205;BME280;64986;55.672;37.628;2023-01-28T10:10:16;100278.13;;;0.23;69.71
76205;BME280;64986;55.672;37.628;2023-01-28T10:18:35;100260.31;;;0.30;68.24
76205;BME280;64986;55.672;37.628;2023-01-28T10:21:10;100263.03;;;0.39;68.72
76205;BME280;64986;55.672;37.628;2023-01-28T10:23:45;100259.63;;;0.39;68.41
76205;BME280;64986;55.672;37.628;2023-01-28T10:26:25;100250.91;;;0.40;67.29
76205;BME280;64986;55.672;37.628;2023-01-28T10:28:56;100255.13;;;0.41;68.71
76205;BME280;64986;55.672;37.628;2023-01-28T10:31:30;100256.66;;;0.43;67.34
76205;BME280;64986;55.672;37.628;2023-01-28T10:33:57;100243.94;;;0.40;68.28
76205;BME280;64986;55.672;37.628;2023-01-28T10:36:22;100248.66;;;0.46;68.53
76205;BME280;64986;55.672;37.628;2023-01-28T10:38:48;100238.97;;;0.48;68.61
76205;BME280;64986;55.672;37.628;2023-01-28T10:41:21;100242.47;;;0.59;67.71
76205;BME280;64986;55.672;37.628;2023-01-28T10:43:47;100236.97;;;0.52;68.95
76205;BME280;64986;55.672;37.628;2023-01-28T10:46:21;100241.69;;;0.47;68.48
76205;BME280;64986;55.672;37.628;2023-01-28T10:48:55;100237.56;;;0.44;67.91
76205;BME280;64986;55.672;37.628;2023-01-28T10:51:36;100235.31;;;0.51;68.02
76205;BME280;64986;55.672;37.628;2023-01-28T10:54:03;100235.94;;;0.43;68.07
76205;BME280;64986;55.672;37.628;2023-01-28T10:56:32;100234.97;;;0.44;68.28
76205;BME280;64986;55.672;37.628;2023-01-28T10:59:43;100232.50;;;0.43;68.66
76205;BME280;64986;55.672;37.628;2023-01-28T11:01:53;100237.22;;;0.38;68.61
76205;BME280;64986;55.672;37.628;2023-01-28T11:04:29;100230.41;;;0.37;67.01
76205;BME280;64986;55.672;37.628;2023-01-28T11:07:00;100226.63;;;0.41;68.22
76205;BME280;64986;55.672;37.628;2023-01-28T11:09:36;100228.63;;;0.48;67.34
76205;BME280;64986;55.672;37.628;2023-01-28T11:12:16;100223.31;;;0.50;68.28
76205;BME280;64986;55.672;37.628;2023-01-28T11:14:56;100220.25;;;0.45;67.01
76205;BME280;64986;55.672;37.628;2023-01-28T11:17:24;100219.09;;;0.49;68.58
76205;BME280;64986;55.672;37.628;2023-01-28T11:19:52;100211.06;;;0.52;67.98
76205;BME280;64986;55.672;37.628;2023-01-28T11:22:37;100208.72;;;0.49;66.45
76205;BME280;64986;55.672;37.628;2023-01-28T11:25:15;100208.72;;;0.49;67.55
76205;BME280;64986;55.672;37.628;2023-01-28T11:27:46;100209.69;;;0.37;67.63
76205;BME280;64986;55.672;37.628;2023-01-28T11:30:32;100211.66;;;0.44;66.15
76205;BME280;64986;55.672;37.628;2023-01-28T11:36:16;100210.25;;;0.51;67.58
76205;BME280;64986;55.672;37.628;2023-01-28T11:41:18;100208.44;;;0.63;67.57
76205;BME280;64986;55.672;37.628;2023-01-28T11:43:50;100200.69;;;0.63;67.96
76205;BME280;64986;55.672;37.628;2023-01-28T11:54:04;100193.75;;;0.85;66.86
76205;BME280;64986;55.672;37.628;2023-01-28T11:56:48;100191.84;;;0.87;66.46
76205;BME280;64986;55.672;37.628;2023-01-28T12:04:59;100177.63;;;0.81;67.29
76205;BME280;64986;55.672;37.628;2023-01-28T12:23:32;100163.66;;;0.72;67.22
76205;BME280;64986;55.672;37.628;2023-01-28T12:26:10;100168.91;;;0.61;67.26
76205;BME280;64986;55.672;37.628;2023-01-28T12:35:45;100151.41;;;0.42;66.70
76205;BME280;64986;55.672;37.628;2023-01-28T12:38:18;100156.88;;;0.28;66.84
76205;BME280;64986;55.672;37.628;2023-01-28T12:41:09;100156.44;;;0.23;66.70
76205;BME280;64986;55.672;37.628;2023-01-28T12:44:07;100156.78;;;0.18;66.96
76205;BME280;64986;55.672;37.628;2023-01-28T12:51:39;100148.56;;;0.13;68.64
76205;BME280;64986;55.672;37.628;2023-01-28T12:54:23;100148.69;;;0.12;67.71
76205;BME280;64986;55.672;37.628;2023-01-28T12:56:54;100148.13;;;0.08;68.19
76205;BME280;64986;55.672;37.628;2023-01-28T12:59:31;100151.53;;;0.09;67.58
76205;BME280;64986;55.672;37.628;2023-01-28T13:09:58;100149.06;;;-0.04;67.99
76205;BME280;64986;55.672;37.628;2023-01-28T13:12:27;100146.25;;;-0.12;68.46
76205;BME280;64986;55.672;37.628;2023-01-28T13:14:53;100145.44;;;-0.24;68.48
76205;BME280;64986;55.672;37.628;2023-01-28T13:17:30;100146.97;;;-0.21;68.60
76205;BME280;64986;55.672;37.628;2023-01-28T13:19:57;100145.47;;;-0.35;68.70
76205;BME280;64986;55.672;37.628;2023-01-28T13:22:32;100146.28;;;-0.35;68.51
76205;BME280;64986;55.672;37.628;2023-01-28T13:25:21;100145.34;;;-0.34;68.57
76205;BME280;64986;55.672;37.628;2023-01-28T13:28:00;100143.22;;;-0.40;68.33
76205;BME280;64986;55.672;37.628;2023-01-28T13:30:31;100147.22;;;-0.47;69.21
76205;BME280;64986;55.672;37.628;2023-01-28T13:33:03;100147.22;;;-0.47;68.96
76205;BME280;64986;55.672;37.628;2023-01-28T13:35:35;100145.44;;;-0.46;69.46
76205;BME280;64986;55.672;37.628;2023-01-28T13:38:12;100139.59;;;-0.48;69.04
76205;BME280;64986;55.672;37.628;2023-01-28T13:40:40;100142.41;;;-0.51;69.50
76205;BME280;64986;55.672;37.628;2023-01-28T13:46:01;100139.69;;;-0.61;69.18
76205;BME280;64986;55.672;37.628;2023-01-28T13:48:38;100139.47;;;-0.58;69.33
76205;BME280;64986;55.672;37.628;2023-01-28T13:51:22;100139.00;;;-0.52;69.61
76205;BME280;64986;55.672;37.628;2023-01-28T13:54:09;100129.94;;;-0.58;69.42
76205;BME280;64986;55.672;37.628;2023-01-28T13:56:55;100131.59;;;-0.57;69.26
76205;BME280;64986;55.672;37.628;2023-01-28T14:16:55;100110.06;;;-0.68;69.87
76205;BME280;64986;55.672;37.628;2023-01-28T14:19:29;100110.91;;;-0.68;69.86
76205;BME280;64986;55.672;37.628;2023-01-28T14:21:56;100111.25;;;-0.72;69.77
76205;BME280;64986;55.672;37.628;2023-01-28T14:24:22;100107.03;;;-0.73;69.87
76205;BME280;64986;55.672;37.628;2023-01-28T14:31:51;100101.38;;;-0.78;70.18
76205;BME280;64986;55.672;37.628;2023-01-28T14:34:24;100106.56;;;-0.78;70.23
76205;BME280;64986;55.672;37.628;2023-01-28T14:37:03;100102.22;;;-0.78;70.32
76205;BME280;64986;55.672;37.628;2023-01-28T14:39:32;100100.69;;;-0.80;70.44
76205;BME280;64986;55.672;37.628;2023-01-28T14:42:02;100103.28;;;-0.80;70.62
76205;BME280;64986;55.672;37.628;2023-01-28T14:44:39;100091.28;;;-0.81;70.19
76205;BME280;64986;55.672;37.628;2023-01-28T14:50:27;100096.00;;;-0.75;69.96
76205;BME280;64986;55.672;37.628;2023-01-28T14:58:08;100101.16;;;-0.75;70.25
76205;BME280;64986;55.672;37.628;2023-01-28T15:00:36;100101.88;;;-0.73;70.26